sensor_id;sensor_type;location;lat;lon;timestamp;pressure;altitude;pressure_sealevel;temperature;humidity
5812;BME280;2932;52.400;9.558;2023-04-06T00:01:21;101365.56;;;10.87;46.56
5812;BME280;2932;52.400;9.558;2023-04-06T00:03:47;101357.59;;;10.86;46.22
5812;BME280;2932;52.400;9.558;2023-04-06T00:06:12;101366.44;;;10.79;46.26
5812;BME280;2932;52.400;9.558;2023-04-06T00:08:37;101362.38;;;10.68;46.27
5812;BME280;2932;52.400;9.558;2023-04-06T00:11:03;101353.25;;;10.67;46.06
5812;BME280;2932;52.400;9.558;2023-04-06T00:13:28;101350.66;;;10.54;46.34
5812;BME280;2932;52.400;9.558;2023-04-06T00:15:54;101349.38;;;10.60;46.23
5812;BME280;2932;52.400;9.558;2023-04-06T00:18:19;101349.03;;;10.70;46.19
5812;BME280;2932;52.400;9.558;2023-04-06T00:20:44;101350.19;;;10.43;46.67
5812;BME280;2932;52.400;9.558;2023-04-06T00:23:10;101349.84;;;10.53;46.64
5812;BME280;2932;52.400;9.558;2023-04-06T00:25:35;101341.53;;;10.79;46.26
5812;BME280;2932;52.400;9.558;2023-04-06T00:28:01;101345.13;;;10.71;46.52
5812;BME280;2932;52.400;9.558;2023-04-06T00:30:26;101344.63;;;10.78;46.44
5812;BME280;2932;52.400;9.558;2023-04-06T00:32:52;101336.47;;;10.73;46.59
5812;BME280;2932;52.400;9.558;2023-04-06T00:35:17;101341.22;;;10.55;47.09
5812;BME280;2932;52.400;9.558;2023-04-06T00:37:42;101335.22;;;10.44;46.78
5812;BME280;2932;52.400;9.558;2023-04-06T00:40:08;101334.25;;;10.49;47.12
5812;BME280;2932;52.400;9.558;2023-04-06T00:42:34;101335.25;;;10.35;47.16
5812;BME280;2932;52.400;9.558;2023-04-06T00:45:00;101336.34;;;10.60;46.94
5812;BME280;2932;52.400;9.558;2023-04-06T00:47:26;101334.25;;;10.40;47.37
5812;BME280;2932;52.400;9.558;2023-04-06T00:49:53;101328.53;;;10.54;47.32
5812;BME280;2932;52.400;9.558;2023-04-06T00:52:19;101323.97;;;10.58;47.51
5812;BME280;2932;52.400;9.558;2023-04-06T00:54:44;101319.31;;;10.32;47.86
5812;BME280;2932;52.400;9.558;2023-04-06T00:57:11;101322.41;;;10.40;47.78
5812;BME280;2932;52.400;9.558;2023-04-06T00:59:37;101318.94;;;10.51;47.77
5812;BME280;2932;52.400;9.558;2023-04-06T01:02:02;101317.00;;;10.43;48.00
5812;BME280;2932;52.400;9.558;2023-04-06T01:04:28;101311.19;;;10.36;48.02
5812;BME280;2932;52.400;9.558;2023-04-06T01:06:53;101308.22;;;10.41;47.62
5812;BME280;2932;52.400;9.558;2023-04-06T01:09:18;101312.94;;;10.41;47.88
5812;BME280;2932;52.400;9.558;2023-04-06T01:11:44;101307.56;;;10.10;48.29
5812;BME280;2932;52.400;9.558;2023-04-06T01:14:10;101314.44;;;9.95;48.48
5812;BME280;2932;52.400;9.558;2023-04-06T01:16:36;101305.78;;;10.05;48.46
5812;BME280;2932;52.400;9.558;2023-04-06T01:19:07;101309.84;;;10.16;48.33
5812;BME280;2932;52.400;9.558;2023-04-06T01:21:33;101303.19;;;10.17;48.41
5812;BME280;2932;52.400;9.558;2023-04-06T01:23:58;101293.59;;;10.32;48.04
5812;BME280;2932;52.400;9.558;2023-04-06T01:26:24;101300.41;;;10.17;48.44
5812;BME280;2932;52.400;9.558;2023-04-06T01:28:49;101301.56;;;10.08;48.39
5812;BME280;2932;52.400;9.558;2023-04-06T01:31:14;101295.03;;;10.12;48.43
5812;BME280;2932;52.400;9.558;2023-04-06T01:33:40;101309.88;;;9.99;48.43
5812;BME280;2932;52.400;9.558;2023-04-06T01:36:05;101302.53;;;9.86;48.94
5812;BME280;2932;52.400;9.558;2023-04-06T01:38:31;101299.28;;;9.75;49.09
5812;BME280;2932;52.400;9.558;2023-04-06T01:40:56;101297.34;;;9.76;49.43
5812;BME280;2932;52.400;9.558;2023-04-06T01:43:22;101298.94;;;9.68;49.41
5812;BME280;2932;52.400;9.558;2023-04-06T01:45:48;101305.44;;;9.72;49.60
5812;BME280;2932;52.400;9.558;2023-04-06T01:48:13;101304.47;;;9.68;49.59
5812;BME280;2932;52.400;9.558;2023-04-06T01:50:39;101298.44;;;9.66;49.66
5812;BME280;2932;52.400;9.558;2023-04-06T01:53:04;101295.38;;;9.67;49.76
5812;BME280;2932;52.400;9.558;2023-04-06T01:55:29;101297.16;;;9.81;49.44
5812;BME280;2932;52.400;9.558;2023-04-06T01:57:55;101296.50;;;9.58;49.52
5812;BME280;2932;52.400;9.558;2023-04-06T02:00:20;101297.97;;;9.55;49.77
5812;BME280;2932;52.400;9.558;2023-04-06T02:02:46;101296.16;;;9.51;50.03
5812;BME280;2932;52.400;9.558;2023-04-06T02:05:11;101294.88;;;9.57;49.91
5812;BME280;2932;52.400;9.558;2023-04-06T02:07:36;101294.69;;;9.45;50.07
5812;BME280;2932;52.400;9.558;2023-04-06T02:10:02;101289.03;;;9.50;49.78
5812;BME280;2932;52.400;9.558;2023-04-06T02:12:28;101286.44;;;9.53;50.06
5812;BME280;2932;52.400;9.558;2023-04-06T02:14:53;101288.69;;;9.51;49.80
5812;BME280;2932;52.400;9.558;2023-04-06T02:17:19;101283.16;;;9.60;49.99
5812;BME280;2932;52.400;9.558;2023-04-06T02:19:44;101280.59;;;9.55;49.75
5812;BME280;2932;52.400;9.558;2023-04-06T02:22:10;101276.00;;;9.42;50.25
5812;BME280;2932;52.400;9.558;2023-04-06T02:24:35;101278.28;;;9.48;50.25
5812;BME280;2932;52.400;9.558;2023-04-06T02:27:01;101277.13;;;9.32;50.60
5812;BME280;2932;52.400;9.558;2023-04-06T02:29:26;101274.56;;;9.53;50.22
5812;BME280;2932;52.400;9.558;2023-04-06T02:31:52;101275.69;;;9.52;50.06
5812;BME280;2932;52.400;9.558;2023-04-06T02:34:17;101264.78;;;9.38;50.37
5812;BME280;2932;52.400;9.558;2023-04-06T02:36:44;101271.59;;;9.32;50.62
5812;BME280;2932;52.400;9.558;2023-04-06T02:39:10;101269.03;;;9.44;50.13
5812;BME280;2932;52.400;9.558;2023-04-06T02:41:36;101269.00;;;9.35;50.35
5812;BME280;2932;52.400;9.558;2023-04-06T02:44:01;101264.31;;;9.45;50.26
5812;BME280;2932;52.400;9.558;2023-04-06T02:46:27;101259.59;;;9.45;50.22
5812;BME280;2932;52.400;9.558;2023-04-06T02:48:52;101267.22;;;9.40;49.95
5812;BME280;2932;52.400;9.558;2023-04-06T02:51:18;101264.63;;;9.43;49.71
5812;BME280;2932;52.400;9.558;2023-04-06T02:53:43;101258.75;;;9.19;50.26
5812;BME280;2932;52.400;9.558;2023-04-06T02:56:08;101267.34;;;9.26;50.19
5812;BME280;2932;52.400;9.558;2023-04-06T02:58:34;101256.81;;;9.28;50.00
5812;BME280;2932;52.400;9.558;2023-04-06T03:00:59;101260.84;;;9.13;50.25
5812;BME280;2932;52.400;9.558;2023-04-06T03:03:25;101256.00;;;9.19;49.93
5812;BME280;2932;52.400;9.558;2023-04-06T03:05:50;101250.94;;;9.12;50.30
5812;BME280;2932;52.400;9.558;2023-04-06T03:08:15;101251.88;;;8.99;50.66
5812;BME280;2932;52.400;9.558;2023-04-06T03:10:41;101249.94;;;9.08;50.16
5812;BME280;2932;52.400;9.558;2023-04-06T03:13:06;101251.91;;;9.16;49.89
5812;BME280;2932;52.400;9.558;2023-04-06T03:15:32;101248.84;;;9.18;49.77
5812;BME280;2932;52.400;9.558;2023-04-06T03:17:57;101244.13;;;9.27;49.33
5812;BME280;2932;52.400;9.558;2023-04-06T03:20:23;101244.28;;;9.22;49.45
5812;BME280;2932;52.400;9.558;2023-04-06T03:22:48;101242.00;;;9.15;49.47
5812;BME280;2932;52.400;9.558;2023-04-06T03:25:14;101244.28;;;9.22;49.43
5812;BME280;2932;52.400;9.558;2023-04-06T03:27:39;101243.78;;;9.20;49.40
5812;BME280;2932;52.400;9.558;2023-04-06T03:30:06;101244.59;;;9.20;49.47
5812;BME280;2932;52.400;9.558;2023-04-06T03:32:31;101247.50;;;9.07;49.15
5812;BME280;2932;52.400;9.558;2023-04-06T03:34:56;101248.00;;;9.09;49.23
5812;BME280;2932;52.400;9.558;2023-04-06T03:37:22;101250.13;;;9.12;49.10
5812;BME280;2932;52.400;9.558;2023-04-06T03:39:47;101248.94;;;8.95;49.45
5812;BME280;2932;52.400;9.558;2023-04-06T03:42:12;101246.69;;;9.06;49.45
5812;BME280;2932;52.400;9.558;2023-04-06T03:44:38;101252.47;;;9.53;48.51
5812;BME280;2932;52.400;9.558;2023-04-06T03:47:03;101246.91;;;9.18;48.68
5812;BME280;2932;52.400;9.558;2023-04-06T03:49:28;101250.47;;;9.27;48.63
5812;BME280;2932;52.400;9.558;2023-04-06T03:51:55;101250.94;;;9.21;48.58
5812;BME280;2932;52.400;9.558;2023-04-06T03:54:21;101252.06;;;9.20;48.69
5812;BME280;2932;52.400;9.558;2023-04-06T03:56:46;101247.69;;;9.27;48.46
5812;BME280;2932;52.400;9.558;2023-04-06T03:59:12;101256.19;;;9.48;48.06
5812;BME280;2932;52.400;9.558;2023-04-06T04:01:37;101249.16;;;9.25;48.28
5812;BME280;2932;52.400;9.558;2023-04-06T04:04:04;101251.22;;;9.02;48.70
5812;BME280;2932;52.400;9.558;2023-04-06T04:06:30;101251.09;;;9.07;48.76
5812;BME280;2932;52.400;9.558;2023-04-06T04:08:55;101248.81;;;9.09;48.66
5812;BME280;2932;52.400;9.558;2023-04-06T04:11:21;101250.63;;;9.14;48.33
5812;BME280;2932;52.400;9.558;2023-04-06T04:13:46;101257.94;;;9.27;48.01
5812;BME280;2932;52.400;9.558;2023-04-06T04:16:11;101254.97;;;9.06;48.30
5812;BME280;2932;52.400;9.558;2023-04-06T04:18:37;101258.41;;;9.20;47.93
5812;BME280;2932;52.400;9.558;2023-04-06T04:21:02;101251.78;;;8.82;48.19
5812;BME280;2932;52.400;9.558;2023-04-06T04:23:28;101259.22;;;9.21;47.77
5812;BME280;2932;52.400;9.558;2023-04-06T04:25:53;101259.38;;;8.67;48.57
5812;BME280;2932;52.400;9.558;2023-04-06T04:28:18;101250.38;;;8.53;48.80
5812;BME280;2932;52.400;9.558;2023-04-06T04:30:44;101252.81;;;8.55;48.92
5812;BME280;2932;52.400;9.558;2023-04-06T04:33:10;101253.91;;;8.85;48.22
5812;BME280;2932;52.400;9.558;2023-04-06T04:35:35;101259.25;;;8.81;48.46
5812;BME280;2932;52.400;9.558;2023-04-06T04:38:01;101248.88;;;8.87;48.42
5812;BME280;2932;52.400;9.558;2023-04-06T04:40:26;101254.72;;;8.85;48.39
5812;BME280;2932;52.400;9.558;2023-04-06T04:42:51;101250.03;;;8.86;48.51
5812;BME280;2932;52.400;9.558;2023-04-06T04:45:17;101253.91;;;8.85;48.45
5812;BME280;2932;52.400;9.558;2023-04-06T04:47:42;101252.47;;;8.87;48.54
5812;BME280;2932;52.400;9.558;2023-04-06T04:50:08;101247.88;;;8.74;48.47
5812;BME280;2932;52.400;9.558;2023-04-06T04:52:33;101247.06;;;8.74;48.81
5812;BME280;2932;52.400;9.558;2023-04-06T04:54:58;101251.34;;;8.88;48.41
5812;BME280;2932;52.400;9.558;2023-04-06T04:57:24;101251.25;;;9.11;48.19
5812;BME280;2932;52.400;9.558;2023-04-06T04:59:49;101253.56;;;9.17;47.90
5812;BME280;2932;52.400;9.558;2023-04-06T05:02:16;101242.50;;;9.17;47.87
5812;BME280;2932;52.400;9.558;2023-04-06T05:04:41;101248.03;;;9.26;47.70
5812;BME280;2932;52.400;9.558;2023-04-06T05:07:08;101243.81;;;9.28;47.71
5812;BME280;2932;52.400;9.558;2023-04-06T05:09:34;101241.69;;;9.17;47.88
5812;BME280;2932;52.400;9.558;2023-04-06T05:12:00;101241.31;;;9.01;48.08
5812;BME280;2932;52.400;9.558;2023-04-06T05:14:27;101242.88;;;8.85;48.12
5812;BME280;2932;52.400;9.558;2023-04-06T05:16:53;101252.16;;;8.89;48.54
5812;BME280;2932;52.400;9.558;2023-04-06T05:19:19;101245.38;;;9.03;48.26
5812;BME280;2932;52.400;9.558;2023-04-06T05:21:44;101251.56;;;9.09;48.35
5812;BME280;2932;52.400;9.558;2023-04-06T05:24:10;101253.22;;;9.19;48.06
5812;BME280;2932;52.400;9.558;2023-04-06T05:26:35;101242.31;;;9.22;47.84
5812;BME280;2932;52.400;9.558;2023-04-06T05:29:01;101247.84;;;9.22;48.31
5812;BME280;2932;52.400;9.558;2023-04-06T05:31:26;101245.91;;;9.23;48.01
5812;BME280;2932;52.400;9.558;2023-04-06T05:33:52;101248.03;;;9.26;47.92
5812;BME280;2932;52.400;9.558;2023-04-06T05:36:17;101242.00;;;9.24;48.02
5812;BME280;2932;52.400;9.558;2023-04-06T05:38:45;101241.34;;;9.10;48.18
5812;BME280;2932;52.400;9.558;2023-04-06T05:41:11;101236.03;;;9.39;47.80
5812;BME280;2932;52.400;9.558;2023-04-06T05:43:36;101245.97;;;9.49;47.57
5812;BME280;2932;52.400;9.558;2023-04-06T05:46:02;101251.50;;;9.57;47.47
5812;BME280;2932;52.400;9.558;2023-04-06T05:48:27;101252.47;;;9.53;47.56
5812;BME280;2932;52.400;9.558;2023-04-06T05:50:52;101246.47;;;9.59;47.39
5812;BME280;2932;52.400;9.558;2023-04-06T05:53:18;101245.47;;;9.55;47.26
5812;BME280;2932;52.400;9.558;2023-04-06T05:55:46;101254.25;;;9.66;47.18
5812;BME280;2932;52.400;9.558;2023-04-06T05:58:11;101261.25;;;9.72;47.18
5812;BME280;2932;52.400;9.558;2023-04-06T06:00:36;101260.44;;;9.72;47.12
5812;BME280;2932;52.400;9.558;2023-04-06T06:03:02;101250.19;;;9.81;47.14
5812;BME280;2932;52.400;9.558;2023-04-06T06:05:29;101243.22;;;9.92;47.08
5812;BME280;2932;52.400;9.558;2023-04-06T06:07:55;101244.66;;;9.89;47.04
5812;BME280;2932;52.400;9.558;2023-04-06T06:10:20;101249.19;;;10.02;46.83
5812;BME280;2932;52.400;9.558;2023-04-06T06:12:45;101238.97;;;9.86;47.03
5812;BME280;2932;52.400;9.558;2023-04-06T06:15:11;101245.16;;;9.83;47.17
5812;BME280;2932;52.400;9.558;2023-04-06T06:17:36;101245.63;;;9.67;47.27
5812;BME280;2932;52.400;9.558;2023-04-06T06:20:05;101237.81;;;9.61;47.58
5812;BME280;2932;52.400;9.558;2023-04-06T06:22:31;101238.66;;;9.53;47.50
5812;BME280;2932;52.400;9.558;2023-04-06T06:24:56;101244.31;;;9.39;47.44
5812;BME280;2932;52.400;9.558;2023-04-06T06:27:21;101242.56;;;9.52;47.64
5812;BME280;2932;52.400;9.558;2023-04-06T06:29:47;101240.44;;;9.57;47.83
5812;BME280;2932;52.400;9.558;2023-04-06T06:32:12;101245.78;;;9.45;47.86
5812;BME280;2932;52.400;9.558;2023-04-06T06:34:37;101240.94;;;9.51;48.00
5812;BME280;2932;52.400;9.558;2023-04-06T06:37:03;101241.88;;;9.63;47.85
5812;BME280;2932;52.400;9.558;2023-04-06T06:39:28;101238.50;;;9.84;47.49
5812;BME280;2932;52.400;9.558;2023-04-06T06:41:53;101246.44;;;9.68;47.37
5812;BME280;2932;52.400;9.558;2023-04-06T06:44:20;101247.44;;;9.98;47.50
5812;BME280;2932;52.400;9.558;2023-04-06T06:46:47;101248.53;;;10.06;47.41
5812;BME280;2932;52.400;9.558;2023-04-06T06:49:12;101250.81;;;10.29;46.79
5812;BME280;2932;52.400;9.558;2023-04-06T06:51:39;101243.84;;;10.23;46.72
5812;BME280;2932;52.400;9.558;2023-04-06T06:54:05;101245.94;;;10.18;46.88
5812;BME280;2932;52.400;9.558;2023-04-06T06:56:30;101243.19;;;10.26;46.95
5812;BME280;2932;52.400;9.558;2023-04-06T06:58:55;101242.50;;;10.38;46.59
5812;BME280;2932;52.400;9.558;2023-04-06T07:01:21;101248.31;;;10.45;46.70
5812;BME280;2932;52.400;9.558;2023-04-06T07:03:46;101244.13;;;10.39;46.72
5812;BME280;2932;52.400;9.558;2023-04-06T07:06:12;101239.69;;;10.47;46.64
5812;BME280;2932;52.400;9.558;2023-04-06T07:08:37;101236.13;;;10.84;46.13
5812;BME280;2932;52.400;9.558;2023-04-06T07:11:02;101236.41;;;10.91;46.15
5812;BME280;2932;52.400;9.558;2023-04-06T07:13:28;101238.16;;;11.05;45.98
5812;BME280;2932;52.400;9.558;2023-04-06T07:15:53;101229.38;;;11.02;46.17
5812;BME280;2932;52.400;9.558;2023-04-06T07:18:19;101233.94;;;10.98;46.58
5812;BME280;2932;52.400;9.558;2023-04-06T07:20:45;101233.94;;;11.28;46.22
5812;BME280;2932;52.400;9.558;2023-04-06T07:23:10;101230.63;;;11.14;46.32
5812;BME280;2932;52.400;9.558;2023-04-06T07:25:36;101229.13;;;11.16;46.91
5812;BME280;2932;52.400;9.558;2023-04-06T07:28:05;101228.75;;;11.47;46.34
5812;BME280;2932;52.400;9.558;2023-04-06T07:30:30;101237.53;;;11.49;45.86
5812;BME280;2932;52.400;9.558;2023-04-06T07:32:56;101229.34;;;11.74;46.12
5812;BME280;2932;52.400;9.558;2023-04-06T07:35:25;101231.47;;;11.56;46.23
5812;BME280;2932;52.400;9.558;2023-04-06T07:37:52;101239.03;;;11.47;46.19
5812;BME280;2932;52.400;9.558;2023-04-06T07:40:17;101235.47;;;11.88;45.52
5812;BME280;2932;52.400;9.558;2023-04-06T07:42:43;101231.94;;;11.99;45.62
5812;BME280;2932;52.400;9.558;2023-04-06T07:45:09;101229.19;;;11.79;45.67
5812;BME280;2932;52.400;9.558;2023-04-06T07:47:34;101233.41;;;11.76;45.86
5812;BME280;2932;52.400;9.558;2023-04-06T07:50:00;101233.38;;;11.85;45.35
5812;BME280;2932;52.400;9.558;2023-04-06T07:52:25;101226.47;;;12.24;44.69
5812;BME280;2932;52.400;9.558;2023-04-06T07:54:51;101231.66;;;12.25;44.67
5812;BME280;2932;52.400;9.558;2023-04-06T07:57:16;101230.72;;;12.21;44.79
5812;BME280;2932;52.400;9.558;2023-04-06T07:59:42;101231.97;;;12.12;45.13
5812;BME280;2932;52.400;9.558;2023-04-06T08:02:07;101232.00;;;12.24;44.80
5812;BME280;2932;52.400;9.558;2023-04-06T08:04:32;101230.84;;;12.25;45.58
5812;BME280;2932;52.400;9.558;2023-04-06T08:06:58;101229.16;;;12.45;45.30
5812;BME280;2932;52.400;9.558;2023-04-06T08:09:23;101227.44;;;12.52;45.07
5812;BME280;2932;52.400;9.558;2023-04-06T08:11:50;101232.22;;;12.76;44.93
5812;BME280;2932;52.400;9.558;2023-04-06T08:14:15;101240.56;;;12.88;44.76
5812;BME280;2932;52.400;9.558;2023-04-06T08:16:41;101239.06;;;12.79;44.91
5812;BME280;2932;52.400;9.558;2023-04-06T08:19:06;101238.25;;;13.02;45.11
5812;BME280;2932;52.400;9.558;2023-04-06T08:21:34;101230.81;;;12.82;45.19
5812;BME280;2932;52.400;9.558;2023-04-06T08:24:00;101229.78;;;13.11;45.11
5812;BME280;2932;52.400;9.558;2023-04-06T08:26:26;101232.00;;;13.06;43.69
5812;BME280;2932;52.400;9.558;2023-04-06T08:28:52;101231.19;;;13.05;43.48
5812;BME280;2932;52.400;9.558;2023-04-06T08:31:17;101238.38;;;13.30;43.50
5812;BME280;2932;52.400;9.558;2023-04-06T08:33:42;101228.97;;;13.47;43.20
5812;BME280;2932;52.400;9.558;2023-04-06T08:36:13;101231.03;;;13.50;42.61
5812;BME280;2932;52.400;9.558;2023-04-06T08:38:40;101235.50;;;13.67;42.33
5812;BME280;2932;52.400;9.558;2023-04-06T08:41:09;101234.56;;;13.75;41.99
5812;BME280;2932;52.400;9.558;2023-04-06T08:43:42;101232.19;;;13.89;42.01
5812;BME280;2932;52.400;9.558;2023-04-06T08:46:08;101233.41;;;13.76;42.09
5812;BME280;2932;52.400;9.558;2023-04-06T08:48:34;101229.06;;;13.91;42.13
5812;BME280;2932;52.400;9.558;2023-04-06T08:51:01;101219.56;;;14.08;42.00
5812;BME280;2932;52.400;9.558;2023-04-06T08:53:27;101218.66;;;14.31;42.14
5812;BME280;2932;52.400;9.558;2023-04-06T08:55:54;101217.34;;;14.13;41.54
5812;BME280;2932;52.400;9.558;2023-04-06T08:58:21;101215.94;;;14.19;41.67
5812;BME280;2932;52.400;9.558;2023-04-06T09:00:47;101218.13;;;14.42;41.40
5812;BME280;2932;52.400;9.558;2023-04-06T09:03:13;101216.91;;;14.71;40.98
5812;BME280;2932;52.400;9.558;2023-04-06T09:05:39;101214.03;;;14.51;41.58
5812;BME280;2932;52.400;9.558;2023-04-06T09:08:05;101216.19;;;14.58;41.64
5812;BME280;2932;52.400;9.558;2023-04-06T09:10:32;101204.78;;;14.79;41.10
5812;BME280;2932;52.400;9.558;2023-04-06T09:13:07;101207.53;;;15.10;40.81
5812;BME280;2932;52.400;9.558;2023-04-06T09:15:33;101198.75;;;15.27;40.74
5812;BME280;2932;52.400;9.558;2023-04-06T09:17:59;101204.16;;;15.55;39.85
5812;BME280;2932;52.400;9.558;2023-04-06T09:20:25;101208.50;;;15.53;39.94
5812;BME280;2932;52.400;9.558;2023-04-06T09:22:51;101206.44;;;15.50;39.61
5812;BME280;2932;52.400;9.558;2023-04-06T09:25:24;101202.72;;;15.26;40.92
5812;BME280;2932;52.400;9.558;2023-04-06T09:28:02;101207.53;;;15.45;40.25
5812;BME280;2932;52.400;9.558;2023-04-06T09:30:28;101199.63;;;15.66;39.81
5812;BME280;2932;52.400;9.558;2023-04-06T09:32:56;101201.50;;;15.59;40.47
5812;BME280;2932;52.400;9.558;2023-04-06T09:35:23;101198.69;;;15.78;40.33
5812;BME280;2932;52.400;9.558;2023-04-06T09:37:50;101193.47;;;15.96;40.04
5812;BME280;2932;52.400;9.558;2023-04-06T09:40:16;101190.81;;;16.03;38.76
5812;BME280;2932;52.400;9.558;2023-04-06T09:42:48;101193.13;;;16.20;39.18
5812;BME280;2932;52.400;9.558;2023-04-06T09:45:17;101196.97;;;16.12;39.30
5812;BME280;2932;52.400;9.558;2023-04-06T09:47:44;101191.78;;;16.33;39.36
5812;BME280;2932;52.400;9.558;2023-04-06T09:50:14;101191.81;;;16.14;39.42
5812;BME280;2932;52.400;9.558;2023-04-06T09:52:45;101198.72;;;16.20;39.03
5812;BME280;2932;52.400;9.558;2023-04-06T09:55:12;101187.69;;;16.27;39.22
5812;BME280;2932;52.400;9.558;2023-04-06T10:00:13;101187.78;;;16.77;39.42
5812;BME280;2932;52.400;9.558;2023-04-06T10:02:58;101185.94;;;16.88;38.79
5812;BME280;2932;52.400;9.558;2023-04-06T10:05:42;101193.81;;;17.05;38.77
5812;BME280;2932;52.400;9.558;2023-04-06T10:08:09;101180.44;;;17.21;38.10
5812;BME280;2932;52.400;9.558;2023-04-06T10:10:36;101182.44;;;17.47;37.51
5812;BME280;2932;52.400;9.558;2023-04-06T10:13:02;101172.38;;;17.73;38.09
5812;BME280;2932;52.400;9.558;2023-04-06T10:15:28;101186.09;;;17.81;37.50
5812;BME280;2932;52.400;9.558;2023-04-06T10:17:55;101174.34;;;17.42;38.54
5812;BME280;2932;52.400;9.558;2023-04-06T10:20:25;101177.31;;;17.53;36.78
5812;BME280;2932;52.400;9.558;2023-04-06T10:23:12;101173.13;;;17.70;37.86
5812;BME280;2932;52.400;9.558;2023-04-06T10:25:52;101184.91;;;17.52;37.34
5812;BME280;2932;52.400;9.558;2023-04-06T10:28:19;101182.22;;;17.63;37.72
5812;BME280;2932;52.400;9.558;2023-04-06T10:30:45;101176.03;;;17.47;36.66
5812;BME280;2932;52.400;9.558;2023-04-06T10:33:18;101181.28;;;17.52;35.55
5812;BME280;2932;52.400;9.558;2023-04-06T10:35:44;101173.53;;;17.12;36.89
5812;BME280;2932;52.400;9.558;2023-04-06T10:38:10;101176.50;;;17.52;35.96
5812;BME280;2932;52.400;9.558;2023-04-06T10:40:39;101185.81;;;17.63;35.58
5812;BME280;2932;52.400;9.558;2023-04-06T10:45:43;101164.44;;;18.15;35.59
5812;BME280;2932;52.400;9.558;2023-04-06T10:48:18;101161.00;;;18.29;36.22
5812;BME280;2932;52.400;9.558;2023-04-06T10:50:49;101163.34;;;18.64;36.80
5812;BME280;2932;52.400;9.558;2023-04-06T10:53:25;101165.22;;;18.53;34.71
5812;BME280;2932;52.400;9.558;2023-04-06T10:55:52;101166.16;;;18.68;34.33
5812;BME280;2932;52.400;9.558;2023-04-06T10:58:18;101167.47;;;18.84;34.66
5812;BME280;2932;52.400;9.558;2023-04-06T11:00:48;101159.47;;;18.83;34.57
5812;BME280;2932;52.400;9.558;2023-04-06T11:03:14;101149.81;;;18.80;34.70
5812;BME280;2932;52.400;9.558;2023-04-06T11:05:50;101154.50;;;19.17;34.79
5812;BME280;2932;52.400;9.558;2023-04-06T11:08:26;101166.19;;;17.90;34.24
5812;BME280;2932;52.400;9.558;2023-04-06T11:11:03;101146.53;;;18.23;34.22
5812;BME280;2932;52.400;9.558;2023-04-06T11:13:48;101143.16;;;18.51;33.72
5812;BME280;2932;52.400;9.558;2023-04-06T11:21:44;101136.09;;;18.61;34.17
5812;BME280;2932;52.400;9.558;2023-04-06T11:24:23;101124.09;;;19.29;33.90
5812;BME280;2932;52.400;9.558;2023-04-06T11:26:54;101123.50;;;19.79;33.04
5812;BME280;2932;52.400;9.558;2023-04-06T11:29:21;101123.34;;;19.40;33.19
5812;BME280;2932;52.400;9.558;2023-04-06T11:31:47;101124.97;;;19.44;33.80
5812;BME280;2932;52.400;9.558;2023-04-06T11:34:20;101135.72;;;18.22;33.81
5812;BME280;2932;52.400;9.558;2023-04-06T11:36:47;101128.25;;;18.37;35.57
5812;BME280;2932;52.400;9.558;2023-04-06T11:39:17;101110.34;;;19.07;35.24
5812;BME280;2932;52.400;9.558;2023-04-06T11:41:47;101121.25;;;19.26;35.59
5812;BME280;2932;52.400;9.558;2023-04-06T11:44:13;101123.75;;;19.38;34.13
5812;BME280;2932;52.400;9.558;2023-04-06T11:46:38;101116.34;;;19.05;35.14
5812;BME280;2932;52.400;9.558;2023-04-06T11:49:04;101120.06;;;18.61;36.32
5812;BME280;2932;52.400;9.558;2023-04-06T11:51:29;101111.28;;;19.32;34.25
5812;BME280;2932;52.400;9.558;2023-04-06T11:53:55;101109.88;;;19.81;34.10
5812;BME280;2932;52.400;9.558;2023-04-06T11:56:28;101096.28;;;20.11;33.06
5812;BME280;2932;52.400;9.558;2023-04-06T11:58:56;101108.81;;;20.39;32.18
5812;BME280;2932;52.400;9.558;2023-04-06T12:01:21;101099.13;;;20.79;33.87
5812;BME280;2932;52.400;9.558;2023-04-06T12:03:47;101091.81;;;21.10;33.03
5812;BME280;2932;52.400;9.558;2023-04-06T12:06:13;101093.06;;;20.06;33.56
5812;BME280;2932;52.400;9.558;2023-04-06T12:08:38;101091.06;;;19.95;33.40
5812;BME280;2932;52.400;9.558;2023-04-06T12:11:04;101083.47;;;20.74;33.47
5812;BME280;2932;52.400;9.558;2023-04-06T12:13:29;101082.56;;;21.09;32.60
5812;BME280;2932;52.400;9.558;2023-04-06T12:15:54;101099.00;;;21.25;32.56
5812;BME280;2932;52.400;9.558;2023-04-06T12:18:20;101088.94;;;21.20;32.52
5812;BME280;2932;52.400;9.558;2023-04-06T12:20:45;101089.00;;;21.10;32.54
5812;BME280;2932;52.400;9.558;2023-04-06T12:23:10;101088.47;;;21.47;32.30
5812;BME280;2932;52.400;9.558;2023-04-06T12:25:39;101085.78;;;21.15;31.87
5812;BME280;2932;52.400;9.558;2023-04-06T12:28:04;101093.19;;;21.68;31.49
5812;BME280;2932;52.400;9.558;2023-04-06T12:30:30;101091.34;;;21.29;31.43
5812;BME280;2932;52.400;9.558;2023-04-06T12:32:56;101082.19;;;21.04;31.89
5812;BME280;2932;52.400;9.558;2023-04-06T12:35:21;101090.47;;;21.53;31.66
5812;BME280;2932;52.400;9.558;2023-04-06T12:37:47;101084.88;;;21.46;31.71
5812;BME280;2932;52.400;9.558;2023-04-06T12:40:12;101076.38;;;21.57;32.39
5812;BME280;2932;52.400;9.558;2023-04-06T12:42:38;101073.94;;;22.21;31.80
5812;BME280;2932;52.400;9.558;2023-04-06T12:45:06;101078.66;;;22.35;31.13
5812;BME280;2932;52.400;9.558;2023-04-06T12:47:31;101091.28;;;21.50;32.01
5812;BME280;2932;52.400;9.558;2023-04-06T12:49:57;101079.88;;;21.72;32.17
5812;BME280;2932;52.400;9.558;2023-04-06T12:52:22;101080.22;;;21.84;32.21
5812;BME280;2932;52.400;9.558;2023-04-06T12:54:48;101074.47;;;22.02;31.91
5812;BME280;2932;52.400;9.558;2023-04-06T12:57:14;101064.19;;;22.33;31.99
5812;BME280;2932;52.400;9.558;2023-04-06T12:59:43;101057.69;;;21.84;31.69
5812;BME280;2932;52.400;9.558;2023-04-06T13:02:09;101054.75;;;22.02;31.99
5812;BME280;2932;52.400;9.558;2023-04-06T13:04:35;101042.56;;;22.16;31.67
5812;BME280;2932;52.400;9.558;2023-04-06T13:07:01;101044.66;;;22.05;31.67
5812;BME280;2932;52.400;9.558;2023-04-06T13:09:26;101048.31;;;22.02;32.33
5812;BME280;2932;52.400;9.558;2023-04-06T13:11:52;101063.41;;;22.29;32.07
5812;BME280;2932;52.400;9.558;2023-04-06T13:14:17;101047.66;;;22.76;31.25
5812;BME280;2932;52.400;9.558;2023-04-06T13:16:42;101046.00;;;23.16;31.57
5812;BME280;2932;52.400;9.558;2023-04-06T13:19:08;101048.31;;;22.91;30.94
5812;BME280;2932;52.400;9.558;2023-04-06T13:21:33;101043.59;;;22.81;31.02